Data for 01/03/2016

Time Sea-Level Adjusted Pressure Absolute Pressure Temperature Relative Humidity Dew Point   
(mb) (inHg) (mb) (inHg) (C) (F) (%) (C) (F)
00:05 1025 30.27 855 25.25 -14.2 6.5 83 -16.4 2.4
00:10 1025 30.27 855 25.25 -14 6.8 84 -16.1 3.1
00:15 1025 30.27 854 25.22 -13.6 7.4 78 -16.6 2.1
00:20 1026 30.3 855 25.25 -14.6 5.8 82 -17 1.4
00:25 1025 30.27 855 25.25 -14.7 5.5 81 -17.2 1
00:30 1025 30.27 855 25.25 -14.6 5.8 82 -17 1.4
00:35 1025 30.27 855 25.25 -13.8 7.1 80 -16.6 2.1
00:40 1025 30.27 855 25.25 -13.9 7 79 -16.7 1.9
00:45 1025 30.27 855 25.25 -14.6 5.7 81 -17.2 1.1
00:50 1025 30.27 855 25.25 -13.8 7.2 82 -16.3 2.7
00:55 1025 30.27 855 25.25 -12.3 9.9 76 -15.6 3.9
01:00 1025 30.27 855 25.25 -12.2 10.1 74 -15.9 3.4
01:05 1025 30.27 855 25.25 -12.7 9.1 78 -15.8 3.6
01:10 1025 30.27 855 25.25 -12.5 9.5 76 -15.9 3.4
01:15 1025 30.27 854 25.22 -12.7 9.2 77 -15.9 3.3
01:20 1025 30.27 854 25.22 -12.4 9.7 76 -15.8 3.6
01:25 1025 30.27 854 25.22 -12.5 9.5 76 -16 3.2
01:30 1025 30.27 854 25.22 -13 8.6 78 -16.1 3
01:35 1025 30.27 854 25.22 -13.1 8.5 78 -16.1 3.1
01:40 1025 30.27 854 25.22 -12.7 9.2 78 -15.8 3.6
01:45 1025 30.27 854 25.22 -12.3 9.9 76 -15.8 3.6
01:50 1025 30.27 854 25.22 -12.1 10.3 76 -15.5 4.2
01:55 1025 30.27 854 25.22 -11.5 11.3 75 -15.1 4.7
02:00 1025 30.27 854 25.22 -11.4 11.5 74 -15.1 4.8
02:05 1025 30.27 854 25.22 -10.7 12.7 72 -14.8 5.4
02:10 1025 30.27 854 25.22 -10.5 13 72 -14.7 5.6
02:15 1025 30.27 854 25.22 -10.7 12.8 72 -14.7 5.5
02:20 1025 30.27 854 25.22 -11 12.3 73 -14.8 5.3
02:25 1025 30.27 854 25.22 -11.3 11.7 75 -14.9 5.1
02:30 1025 30.27 854 25.22 -11.3 11.8 73 -15.2 4.6
02:35 1025 30.27 854 25.22 -11 12.3 71 -15.2 4.6
02:40 1025 30.27 854 25.22 -11 12.1 73 -15 5
02:45 1024 30.24 853 25.19 -11 12.2 72 -15.2 4.7
02:50 1024 30.24 853 25.19 -11.9 10.5 75 -15.5 4.2
02:55 1024 30.24 853 25.19 -12.3 10 76 -15.6 3.9
03:00 1024 30.24 853 25.19 -12 10.4 75 -15.7 3.8
03:05 1024 30.24 853 25.19 -12.1 10.2 74 -15.8 3.5
03:10 1024 30.24 853 25.19 -12.3 10 78 -15.3 4.5
03:15 1024 30.24 853 25.19 -12.1 10.2 76 -15.5 4.1
03:20 1024 30.24 853 25.19 -12 10.5 73 -15.9 3.4
03:25 1024 30.24 853 25.19 -11.6 11.1 73 -15.5 4.1
03:30 1024 30.24 853 25.19 -12 10.4 72 -16.1 3
03:35 1024 30.24 854 25.22 -13.7 7.4 78 -16.7 2
03:40 1025 30.27 854 25.22 -14.3 6.3 85 -16.4 2.6
03:45 1025 30.27 854 25.22 -13.6 7.5 85 -15.5 4
03:50 1025 30.27 854 25.22 -13.7 7.4 81 -16.2 2.8
03:55 1025 30.27 854 25.22 -14 6.8 83 -16.3 2.7
04:00 1025 30.27 854 25.22 -13.8 7.1 81 -16.4 2.5
04:05 1025 30.27 854 25.22 -14 6.8 81 -16.6 2
04:10 1025 30.27 854 25.22 -14.2 6.4 82 -16.7 2
04:15 1025 30.27 854 25.22 -14.1 6.6 81 -16.7 1.9
04:20 1025 30.27 854 25.22 -14.2 6.4 81 -16.8 1.8
04:25 1025 30.27 854 25.22 -14.5 5.9 81 -17 1.4
04:30 1025 30.27 854 25.22 -15 5 83 -17.3 0.9
04:35 1025 30.27 854 25.22 -15 5.1 82 -17.3 0.8
04:40 1025 30.27 854 25.22 -14.7 5.6 83 -16.9 1.6
04:45 1025 30.27 854 25.22 -14.2 6.5 82 -16.6 2.2
04:50 1025 30.27 854 25.22 -13.8 7.2 82 -16.3 2.7
04:55 1025 30.27 854 25.22 -13.2 8.2 79 -16.1 2.9
05:00 1024 30.24 854 25.22 -13.2 8.2 79 -16.2 2.9
05:05 1024 30.24 854 25.22 -13.1 8.4 78 -16.1 3
05:10 1024 30.24 853 25.19 -12.8 9 77 -16 3.2
05:15 1024 30.24 853 25.19 -12.7 9.2 77 -16 3.3
05:20 1024 30.24 853 25.19 -12.6 9.3 77 -15.9 3.4
05:25 1024 30.24 853 25.19 -12.6 9.4 77 -15.9 3.5
05:30 1023 30.21 853 25.19 -12.3 9.8 77 -15.6 3.9
05:35 1023 30.21 853 25.19 -11.4 11.4 74 -15.2 4.7
05:40 1023 30.21 853 25.19 -11 12.1 73 -14.9 5.1
05:45 1023 30.21 852 25.16 -11 12.1 74 -14.9 5.3
05:50 1023 30.21 852 25.16 -10.6 12.9 72 -14.7 5.5
05:55 1023 30.21 852 25.16 -9.7 14.5 67 -14.7 5.6
06:00 1023 30.21 852 25.16 -8.9 15.9 66 -14.3 6.3
06:05 1023 30.21 853 25.19 -9 15.7 68 -14 6.8
06:10 1023 30.21 853 25.19 -8.4 17 64 -14 6.9
06:15 1023 30.21 853 25.19 -8.3 17 65 -13.8 7.2
06:20 1024 30.24 853 25.19 -9.5 14.9 70 -13.9 6.9
06:25 1024 30.24 853 25.19 -12.3 9.9 73 -16.2 2.8
06:30 1024 30.24 853 25.19 -14.3 6.3 80 -17 1.5
06:35 1024 30.24 853 25.19 -14.8 5.5 81 -17.3 0.9
06:40 1024 30.24 853 25.19 -14.8 5.3 82 -17.3 0.9
06:45 1024 30.24 853 25.19 -14.9 5.2 83 -17.2 1
06:50 1024 30.24 853 25.19 -14.7 5.5 83 -17.1 1.2
06:55 1024 30.24 853 25.19 -14.4 6 83 -16.7 1.9
07:00 1024 30.24 853 25.19 -14.1 6.7 82 -16.6 2.2
07:05 1024 30.24 853 25.19 -13.9 7 80 -16.6 2.1
07:10 1024 30.24 853 25.19 -14.1 6.7 80 -16.7 1.9
07:15 1024 30.24 853 25.19 -14.1 6.7 80 -16.8 1.8
07:20 1024 30.24 853 25.19 -14 6.7 81 -16.7 2
07:25 1024 30.24 853 25.19 -13.9 7 81 -16.5 2.2
07:30 1024 30.24 853 25.19 -14 6.8 81 -16.6 2.1
07:35 1024 30.24 853 25.19 -14.2 6.4 81 -16.8 1.7
07:40 1024 30.24 853 25.19 -14.2 6.4 81 -16.8 1.8
07:45 1024 30.24 853 25.19 -14.3 6.3 81 -16.8 1.8
07:50 1024 30.24 853 25.19 -14.4 6 82 -16.9 1.6
07:55 1024 30.24 853 25.19 -14.2 6.4 82 -16.7 2
08:00 1024 30.24 853 25.19 -14.1 6.6 82 -16.5 2.2
08:05 1024 30.24 853 25.19 -13.9 7.1 82 -16.3 2.6
08:10 1024 30.24 853 25.19 -13.6 7.6 81 -16.2 2.8
08:15 1024 30.24 853 25.19 -13.6 7.6 81 -16.2 2.9
08:20 1024 30.24 853 25.19 -13.3 8 80 -16.1 3.1
08:25 1024 30.24 853 25.19 -12.9 8.7 79 -15.8 3.5
08:30 1024 30.24 853 25.19 -12.7 9.2 78 -15.7 3.8
08:35 1024 30.24 853 25.19 -12.6 9.2 78 -15.7 3.8
08:40 1024 30.24 853 25.19 -12.6 9.3 79 -15.6 4
08:45 1024 30.24 853 25.19 -12.4 9.8 77 -15.5 4
08:50 1024 30.24 853 25.19 -12.2 10 77 -15.4 4.2
08:55 1024 30.24 853 25.19 -12.6 9.3 79 -15.5 4.1
09:00 1024 30.24 853 25.19 -12.7 9.1 79 -15.6 3.9
09:05 1024 30.24 853 25.19 -13.1 8.5 80 -15.7 3.7
09:10 1023 30.21 853 25.19 -13.1 8.4 81 -15.8 3.6
09:15 1023 30.21 853 25.19 -13 8.6 80 -15.8 3.6
09:20 1023 30.21 853 25.19 -13.1 8.4 81 -15.7 3.7
09:25 1023 30.21 852 25.16 -12.8 9 80 -15.5 4.1
09:30 1023 30.21 852 25.16 -12.3 9.8 78 -15.4 4.4
09:35 1023 30.21 852 25.16 -12.3 10 79 -15.3 4.5
09:40 1023 30.21 852 25.16 -11.7 10.9 76 -15.1 4.8
09:45 1023 30.21 852 25.16 -11 12.2 74 -14.8 5.3
09:50 1023 30.21 852 25.16 -10.4 13.3 72 -14.6 5.8
09:55 1023 30.21 852 25.16 -10.3 13.4 72 -14.5 6
10:00 1023 30.21 852 25.16 -10.2 13.7 71 -14.6 5.8
10:05 1023 30.21 852 25.16 -10.2 13.7 71 -14.4 6
10:10 1023 30.21 852 25.16 -10.8 12.7 73 -14.8 5.4
10:15 1023 30.21 852 25.16 -10.9 12.4 74 -14.6 5.7
10:20 1023 30.21 852 25.16 -10.3 13.4 72 -14.4 6
10:25 1023 30.21 852 25.16 -10.1 13.9 70 -14.6 5.7
10:30 1023 30.21 852 25.16 -10.3 13.5 72 -14.4 6
10:35 1023 30.21 852 25.16 -9.9 14.2 70 -14.4 6.1
10:40 1023 30.21 852 25.16 -9 15.8 66 -14.2 6.4
10:45 1023 30.21 852 25.16 -9 15.9 66 -14.2 6.5
10:50 1023 30.21 852 25.16 -9.4 15.1 70 -13.9 6.9
10:55 1023 30.21 852 25.16 -9.8 14.3 72 -14 6.8
11:00 1023 30.21 852 25.16 -10.1 13.8 75 -13.6 7.4
11:05 1023 30.21 852 25.16 -10.4 13.2 79 -13.4 7.9
11:10 1023 30.21 852 25.16 -10.6 12.9 75 -14.2 6.5
11:15 1023 30.21 852 25.16 -10.7 12.8 73 -14.6 5.7
11:20 1023 30.21 852 25.16 -10.6 12.9 73 -14.6 5.7
11:25 1023 30.21 852 25.16 -10.8 12.5 72 -14.9 5.3
11:30 1023 30.21 852 25.16 -11 12.2 73 -14.9 5.2
11:35 1023 30.21 852 25.16 -11 12.3 74 -14.8 5.4
11:40 1023 30.21 852 25.16 -10.9 12.4 72 -15 5
11:45 1023 30.21 852 25.16 -11 12.3 73 -15 5.1
11:50 1023 30.21 852 25.16 -10.8 12.5 71 -15.1 4.9
11:55 1023 30.21 852 25.16 -10.6 12.9 70 -15.1 4.8
12:00 1023 30.21 852 25.16 -10.5 13.1 69 -15 4.9
12:05 1023 30.21 852 25.16 -10.8 12.6 70 -15.2 4.6
12:10 1023 30.21 852 25.16 -10.7 12.8 68 -15.6 4
12:15 1023 30.21 852 25.16 -10.9 12.4 71 -15.2 4.6
12:20 1023 30.21 852 25.16 -10.8 12.7 70 -15.3 4.5
12:25 1022 30.18 852 25.16 -10.7 12.7 70 -15.1 4.8
12:30 1022 30.18 852 25.16 -10.6 13 66 -15.7 3.7
12:35 1022 30.18 852 25.16 -11.1 12.1 73 -14.9 5.1
12:40 1022 30.18 852 25.16 -10.9 12.4 70 -15.4 4.4
12:45 1022 30.18 851 25.13 -10.6 13 69 -15.1 4.8
12:50 1022 30.18 851 25.13 -10.1 13.8 68 -14.9 5.2
12:55 1022 30.18 851 25.13 -9.8 14.4 68 -14.7 5.6
13:00 1022 30.18 851 25.13 -9.5 15 66 -14.7 5.6
13:05 1022 30.18 851 25.13 -9.2 15.4 65 -14.6 5.7
13:10 1022 30.18 851 25.13 -8.4 16.9 62 -14.4 6
13:15 1022 30.18 851 25.13 -8.1 17.4 62 -14.2 6.4
13:20 1022 30.18 851 25.13 -7.9 17.7 61 -14.1 6.6
13:25 1022 30.18 851 25.13 -7.4 18.6 59 -14.1 6.7
13:30 1022 30.18 851 25.13 -7.2 19.1 59 -13.8 7.2
13:35 1022 30.18 851 25.13 -7.5 18.5 60 -14 6.7
13:40 1022 30.18 851 25.13 -6.5 20.3 56 -13.8 7.1
13:45 1022 30.18 851 25.13 -6.2 20.8 55 -13.9 6.9
13:50 1022 30.18 851 25.13 -5.5 22 52 -13.8 7.1
13:55 1022 30.18 851 25.13 -5.1 22.8 52 -13.5 7.7
14:00 1022 30.18 851 25.13 -4.9 23.1 51 -13.6 7.6
14:05 1022 30.18 851 25.13 -5.1 22.9 52 -13.5 7.8
14:10 1021 30.15 851 25.13 -5.5 22.1 53 -13.6 7.5
14:15 1021 30.15 851 25.13 -5.2 22.6 53 -13.5 7.8
14:20 1021 30.15 851 25.13 -5.2 22.7 54 -13.2 8.2
14:25 1021 30.15 851 25.13 -4.8 23.4 51 -13.5 7.8
14:30 1021 30.15 851 25.13 -4.2 24.5 49 -13.3 8
14:35 1021 30.15 850 25.1 -4.2 24.5 50 -13.2 8.3
14:40 1021 30.15 850 25.1 -4.1 24.6 50 -13.1 8.4
14:45 1021 30.15 850 25.1 -4.4 24 49 -13.5 7.6
14:50 1021 30.15 850 25.1 -4.5 23.8 49 -13.7 7.4
14:55 1021 30.15 850 25.1 -4.4 24.1 50 -13.3 8.1
15:00 1021 30.15 850 25.1 -4 24.7 50 -13 8.6
15:05 1021 30.15 850 25.1 -4.1 24.7 49 -13.2 8.3
15:10 1021 30.15 850 25.1 -4 24.8 50 -13.1 8.5
15:15 1021 30.15 850 25.1 -4.2 24.4 52 -12.6 9.3
15:20 1021 30.15 850 25.1 -4.3 24.2 52 -12.7 9.1
15:25 1021 30.15 850 25.1 -4 24.8 50 -13 8.7
15:30 1021 30.15 850 25.1 -4.2 24.4 53 -12.5 9.5
15:35 1021 30.15 850 25.1 -4.4 24 52 -12.9 8.8
15:40 1021 30.15 850 25.1 -4.4 24.1 52 -12.9 8.9
15:45 1021 30.15 850 25.1 -4.2 24.4 52 -12.6 9.3
15:50 1021 30.15 850 25.1 -4.1 24.6 51 -12.7 9.1
15:55 1021 30.15 850 25.1 -3.9 25 50 -12.8 8.9
16:00 1020 30.12 850 25.1 -3.9 25 50 -12.9 8.7
16:05 1020 30.12 850 25.1 -4.1 24.7 51 -12.7 9.2
16:10 1020 30.12 850 25.1 -4.5 24 54 -12.4 9.6
16:15 1021 30.15 850 25.1 -4.7 23.5 55 -12.5 9.4
16:20 1021 30.15 850 25.1 -4.5 23.9 55 -12.3 9.9
16:25 1020 30.12 850 25.1 -4.7 23.6 55 -12.3 9.8
16:30 1020 30.12 850 25.1 -4.7 23.6 55 -12.5 9.4
16:35 1020 30.12 850 25.1 -4.7 23.5 55 -12.5 9.5
16:40 1020 30.12 849 25.07 -4.4 24.1 53 -12.6 9.3
16:45 1020 30.12 849 25.07 -4.1 24.5 53 -12.5 9.5
16:50 1020 30.12 849 25.07 -4.5 23.9 56 -12 10.3
16:55 1020 30.12 849 25.07 -4.7 23.5 56 -12.2 10.1
17:00 1020 30.12 849 25.07 -4.6 23.8 56 -12.1 10.2
17:05 1020 30.12 849 25.07 -4.8 23.4 58 -12 10.5
17:10 1020 30.12 849 25.07 -5.1 22.8 60 -11.8 10.8
17:15 1020 30.12 849 25.07 -5.1 22.8 59 -11.8 10.7
17:20 1020 30.12 849 25.07 -5.1 22.8 58 -12.1 10.2
17:25 1020 30.12 849 25.07 -5.2 22.6 60 -11.8 10.7
17:30 1020 30.12 849 25.07 -5.4 22.3 60 -11.9 10.5
17:35 1020 30.12 849 25.07 -5.6 22 62 -11.8 10.7
17:40 1020 30.12 849 25.07 -5.9 21.4 62 -12 10.3
17:45 1020 30.12 849 25.07 -6 21.1 64 -11.8 10.7
17:50 1020 30.12 849 25.07 -6.4 20.4 64 -12.2 10
17:55 1020 30.12 849 25.07 -6.9 19.7 64 -12.5 9.5
18:00 1020 30.12 849 25.07 -7.2 19.1 65 -12.8 9
18:05 1020 30.12 850 25.1 -7.8 18 67 -12.9 8.8
18:10 1020 30.12 850 25.1 -8 17.5 68 -13 8.5
18:15 1020 30.12 850 25.1 -8.1 17.3 68 -13 8.7
18:20 1020 30.12 850 25.1 -8.2 17.2 69 -12.9 8.7
18:25 1020 30.12 850 25.1 -8.5 16.7 69 -13.1 8.3
18:30 1020 30.12 850 25.1 -8.8 16.3 71 -13.2 8.3
18:35 1020 30.12 850 25.1 -9.1 15.7 71 -13.4 7.9
18:40 1020 30.12 850 25.1 -9.1 15.6 71 -13.4 7.8
18:45 1020 30.12 849 25.07 -9.4 15.1 74 -13.3 8.1
18:50 1020 30.12 849 25.07 -9.3 15.2 71 -13.6 7.5
18:55 1020 30.12 849 25.07 -9.5 15 73 -13.5 7.7
19:00 1020 30.12 849 25.07 -9.2 15.5 73 -13.2 8.2
19:05 1020 30.12 849 25.07 -9.1 15.6 74 -12.9 8.8
19:10 1020 30.12 849 25.07 -9.1 15.6 75 -12.8 8.9
19:15 1020 30.12 849 25.07 -8.7 16.4 72 -12.8 9
19:20 1020 30.12 849 25.07 -8.6 16.6 72 -12.7 9.1
19:25 1020 30.12 849 25.07 -8.5 16.7 72 -12.7 9.2
19:30 1020 30.12 849 25.07 -8.6 16.5 72 -12.7 9.1
19:35 1020 30.12 849 25.07 -8.6 16.6 71 -12.9 8.7
19:40 1020 30.12 849 25.07 -8.3 17.2 70 -12.8 9
19:45 1020 30.12 849 25.07 -8 17.6 68 -12.8 8.9
19:50 1020 30.12 849 25.07 -8.2 17.3 70 -12.8 9
19:55 1020 30.12 849 25.07 -8.3 17.1 69 -13 8.7
20:00 1020 30.12 849 25.07 -7.9 17.8 68 -12.9 8.8
20:05 1020 30.12 849 25.07 -7.9 17.8 68 -12.8 9
20:10 1020 30.12 849 25.07 -7.9 17.7 69 -12.7 9.1
20:15 1019 30.09 849 25.07 -7.5 18.6 65 -12.9 8.8
20:20 1019 30.09 849 25.07 -6.8 19.8 63 -12.6 9.3
20:25 1019 30.09 849 25.07 -7.8 18 69 -12.5 9.4
20:30 1019 30.09 848 25.04 -7.1 19.2 66 -12.5 9.6
20:35 1019 30.09 849 25.07 -7.5 18.5 69 -12.3 9.8
20:40 1019 30.09 848 25.04 -7 19.5 65 -12.4 9.7
20:45 1019 30.09 848 25.04 -6.8 19.7 70 -11.5 11.4
20:50 1019 30.09 848 25.04 -6 21.3 60 -12.6 9.4
20:55 1019 30.09 848 25.04 -6.5 20.4 63 -12.5 9.6
21:00 1019 30.09 848 25.04 -6.8 19.8 67 -12 10.4
21:05 1019 30.09 848 25.04 -7 19.5 65 -12.4 9.6
21:10 1019 30.09 848 25.04 -7.3 18.8 69 -12 10.3
21:15 1019 30.09 848 25.04 -7.5 18.5 71 -11.9 10.6
21:20 1019 30.09 848 25.04 -7.7 18.2 71 -12 10.4
21:25 1019 30.09 848 25.04 -7.9 17.8 69 -12.6 9.4
21:30 1019 30.09 848 25.04 -7.9 17.9 68 -12.8 8.9
21:35 1019 30.09 848 25.04 -7.8 18 68 -12.7 9.1
21:40 1019 30.09 848 25.04 -7.9 17.8 69 -12.7 9.2
21:45 1019 30.09 848 25.04 -8 17.6 68 -13 8.6
21:50 1019 30.09 848 25.04 -8.5 16.6 70 -13 8.6
21:55 1019 30.09 848 25.04 -8.8 16.1 70 -13.4 7.9
22:00 1018 30.06 848 25.04 -9.4 15.1 73 -13.4 7.9
22:05 1018 30.06 848 25.04 -9.2 15.5 71 -13.6 7.5
22:10 1018 30.06 848 25.04 -9.1 15.7 72 -13.3 8.1
22:15 1018 30.06 847 25.01 -9.1 15.7 71 -13.4 7.9
22:20 1018 30.06 847 25.01 -9.2 15.5 74 -13 8.5
22:25 1018 30.06 847 25.01 -9.2 15.5 72 -13.3 8.1
22:30 1018 30.06 847 25.01 -9.3 15.3 73 -13.2 8.2
22:35 1018 30.06 847 25.01 -9.1 15.6 77 -12.5 9.5
22:40 1018 30.06 847 25.01 -8.6 16.5 73 -12.6 9.3
22:45 1018 30.06 847 25.01 -8.9 16 71 -13.2 8.2
22:50 1018 30.06 847 25.01 -9.1 15.6 71 -13.4 7.8
22:55 1018 30.06 847 25.01 -8.9 16 72 -13.1 8.4
23:00 1018 30.06 847 25.01 -8.6 16.6 69 -13.2 8.2
23:05 1018 30.06 847 25.01 -8.6 16.6 73 -12.6 9.3
23:10 1018 30.06 847 25.01 -8.3 17.1 71 -12.6 9.3
23:15 1018 30.06 847 25.01 -8.3 17.2 69 -13 8.6
23:20 1018 30.06 847 25.01 -8.4 16.9 68 -13.2 8.2
23:25 1018 30.06 847 25.01 -8.7 16.4 71 -13 8.5
23:30 1018 30.06 847 25.01 -8.6 16.5 67 -13.6 7.4
23:35 1018 30.06 847 25.01 -8.8 16.2 72 -13 8.6
23:40 1018 30.06 847 25.01 -9 15.8 71 -13.4 8
23:45 1018 30.06 847 25.01 -8.9 16 69 -13.6 7.4
23:50 1018 30.06 847 25.01 -8.5 16.6 69 -13.3 8
23:55 1018 30.06 847 25.01 -8.4 16.8 68 -13.3 8
24:00 1018 30.06 847 25.01 -8.4 16.9 70 -13 8.6